Time;durP1;ratioP1;P1;durP2;ratioP2;P2;SDS_P1;SDS_P2;PMS_P1;PMS_P2;Temp;Humidity;BMP_temperature;BMP_pressure;BME280_temperature;BME280_humidity;BME280_pressure;Samples;Min_cycle;Max_cycle;Signal;HPM_P1;HPM_P2
2021/03/01 08:43:32;;;;;;;16.80;12.97;;;3.60;99.90;;;;;;6410597;22;20441;-92
2021/03/01 12:29:47;;;;;;;14.57;10.67;;;13.40;1.00;;;;;;6437891;22;20831;-92
2021/03/01 12:32:14;;;;;;;12.43;11.33;;;13.10;1.00;;;;;;6442215;22;20444;-92
2021/03/01 12:34:42;;;;;;;12.93;11.63;;;13.10;1.00;;;;;;6442198;22;20444;-91
2021/03/01 12:37:14;;;;;;;16.03;11.00;;;12.10;1.00;;;;;;6441255;22;20751;-91
2021/03/01 12:39:43;;;;;;;13.07;11.37;;;12.60;1.00;;;;;;6441226;22;20427;-92
2021/03/01 12:42:18;;;;;;;13.63;12.33;;;13.20;1.00;;;;;;6441514;22;20909;-91
2021/03/01 12:44:46;;;;;;;13.73;12.43;;;12.90;1.00;;;;;;6442020;22;20420;-91
2021/03/01 12:47:17;;;;;;;15.07;12.57;;;13.30;1.00;;;;;;6441351;22;20451;-91
2021/03/01 12:49:59;;;;;;;14.43;13.00;;;13.20;1.00;;;;;;6441627;22;20424;-91
2021/03/01 12:52:30;;;;;;;13.60;12.20;;;13.10;1.00;;;;;;6441494;22;20540;-91
2021/03/01 12:55:00;;;;;;;15.60;12.77;;;13.20;1.00;;;;;;6441595;22;20765;-91
2021/03/01 12:57:39;;;;;;;15.37;13.73;;;13.10;1.00;;;;;;6442679;22;20391;-91
2021/03/01 13:00:14;;;;;;;14.27;12.37;;;13.30;1.00;;;;;;6440318;22;20816;-92
2021/03/01 13:02:41;;;;;;;14.90;13.40;;;12.90;1.00;;;;;;6440063;22;20424;-91
2021/03/01 13:05:11;;;;;;;15.33;13.83;;;12.90;1.00;;;;;;6441614;22;20500;-92
2021/03/01 13:07:42;;;;;;;15.70;14.20;;;12.80;1.00;;;;;;6441592;22;20738;-91
2021/03/01 13:10:12;;;;;;;14.80;13.20;;;12.80;1.00;;;;;;6440374;22;20703;-91
2021/03/01 13:12:41;;;;;;;14.47;12.97;;;13.10;1.00;;;;;;6441107;22;20812;-91
2021/03/01 13:15:13;;;;;;;17.87;13.10;;;13.20;1.00;;;;;;6439893;22;20742;-91
2021/03/01 13:17:43;;;;;;;15.17;13.57;;;13.00;1.00;;;;;;6440633;22;20416;-92
2021/03/01 13:20:12;;;;;;;15.80;14.40;;;13.30;1.00;;;;;;6440637;22;20420;-91
2021/03/01 13:22:41;;;;;;;16.33;14.07;;;13.20;1.00;;;;;;6441552;22;20427;-92
2021/03/01 13:25:10;;;;;;;18.03;16.10;;;13.40;1.00;;;;;;6441143;22;20449;-91
2021/03/01 13:27:38;;;;;;;17.50;14.90;;;12.70;1.00;;;;;;6441161;22;20444;-91
2021/03/01 13:30:07;;;;;;;16.23;14.53;;;12.50;1.00;;;;;;6440146;22;20730;-92
2021/03/01 13:32:37;;;;;;;15.83;14.23;;;12.60;1.00;;;;;;6440962;22;20482;-92
2021/03/01 13:35:07;;;;;;;17.03;15.20;;;12.50;1.00;;;;;;6439629;22;20448;-91
2021/03/01 13:37:35;;;;;;;16.40;14.70;;;12.60;1.00;;;;;;6411068;22;20413;-92
2021/03/01 13:40:02;;;;;;;17.83;15.67;;;13.10;1.00;;;;;;6440170;22;20424;-91
2021/03/01 13:42:29;;;;;;;18.57;16.40;;;13.30;1.00;;;;;;6440477;22;20417;-92
2021/03/01 13:44:58;;;;;;;20.87;17.70;;;13.50;1.00;;;;;;6441826;22;20408;-91
2021/03/01 13:47:28;;;;;;;17.53;15.73;;;13.50;1.00;;;;;;6440593;22;20424;-91
2021/03/01 13:49:59;;;;;;;18.73;16.70;;;13.40;1.00;;;;;;6440408;22;20421;-91
2021/03/01 13:52:27;;;;;;;18.53;16.60;;;13.30;1.00;;;;;;6438800;22;20448;-91
2021/03/01 13:55:06;;;;;;;19.47;16.97;;;13.20;1.00;;;;;;6439493;22;20432;-92
2021/03/01 13:57:51;;;;;;;18.63;16.63;;;13.10;1.00;;;;;;6410626;22;20420;-92
2021/03/01 14:00:32;;;;;;;19.30;16.87;;;12.30;1.00;;;;;;6439880;22;20481;-92
2021/03/01 14:03:00;;;;;;;21.70;17.07;;;12.10;1.00;;;;;;6411296;22;20417;-92
2021/03/01 14:05:27;;;;;;;19.93;17.83;;;12.30;1.00;;;;;;6440644;22;20447;-91
2021/03/01 14:07:56;;;;;;;19.47;17.47;;;12.20;1.00;;;;;;6440362;22;20405;-92
2021/03/01 14:10:25;;;;;;;20.33;18.10;;;12.20;1.00;;;;;;6411273;22;20448;-92
2021/03/01 14:12:58;;;;;;;21.73;18.40;;;12.40;1.00;;;;;;6440419;22;20420;-92
2021/03/01 14:15:27;;;;;;;19.03;16.97;;;12.60;1.00;;;;;;6439981;22;20479;-92
2021/03/01 14:17:54;;;;;;;21.10;18.00;;;12.40;1.00;;;;;;6439511;22;20729;-92
2021/03/01 14:20:29;;;;;;;20.00;17.90;;;12.40;1.00;;;;;;6441237;22;20725;-91
2021/03/01 14:43:52;;;;;;;19.13;17.10;;;11.40;1.00;;;;;;6443245;22;20359;-92
2021/03/01 14:46:23;;;;;;;18.77;15.50;;;11.40;1.00;;;;;;6442509;22;20416;-91
2021/03/01 14:51:45;;;;;;;18.17;16.27;;;10.90;1.00;;;;;;6409547;22;20754;-92
2021/03/01 14:54:30;;;;;;;19.03;17.00;;;10.80;1.00;;;;;;6281126;22;20619;-91
2021/03/01 14:57:10;;;;;;;18.93;16.93;;;10.90;1.00;;;;;;6409901;22;20417;-91
2021/03/01 15:00:22;;;;;;;20.40;15.80;;;10.80;1.00;;;;;;6409188;22;20424;-91
2021/03/01 15:05:18;;;;;;;21.43;16.13;;;10.70;1.00;;;;;;6409645;22;20395;-91
2021/03/01 15:07:52;;;;;;;20.47;17.37;;;10.20;1.00;;;;;;6409313;22;20254;-91
2021/03/01 15:10:22;;;;;;;18.40;16.40;;;9.90;1.00;;;;;;6409625;22;20428;-91
2021/03/01 15:16:13;;;;;;;20.40;17.03;;;9.50;1.00;;;;;;6410175;22;20846;-91
2021/03/01 15:27:44;;;;;;;20.37;17.33;;;9.10;1.00;;;;;;6381148;22;20441;-91
2021/03/01 15:49:46;;;;;;;20.50;17.30;;;8.90;1.00;;;;;;6410284;22;20403;-92
2021/03/01 15:52:20;;;;;;;21.80;17.23;;;9.00;1.00;;;;;;6412133;22;20445;-91
2021/03/01 15:54:48;;;;;;;22.90;17.60;;;8.80;1.00;;;;;;6409731;22;20496;-94
2021/03/01 16:00:03;;;;;;;21.03;17.40;;;8.70;8.00;;;;;;6409481;22;20506;-93
2021/03/01 16:02:34;;;;;;;25.90;18.03;;;8.80;1.00;;;;;;6408235;22;20470;-93
2021/03/01 16:05:03;;;;;;;22.80;19.20;;;8.90;1.00;;;;;;6409004;22;20705;-93
2021/03/01 16:07:36;;;;;;;21.70;18.27;;;8.90;1.00;;;;;;6408645;22;20407;-92
2021/03/01 16:10:05;;;;;;;22.00;17.90;;;8.80;1.00;;;;;;6410316;22;20417;-92
2021/03/01 16:12:41;;;;;;;21.10;17.63;;;8.70;1.00;;;;;;6410182;22;20437;-93
2021/03/01 16:15:12;;;;;;;21.00;18.07;;;8.70;15.70;;;;;;6410471;22;20444;-93
2021/03/01 16:17:48;;;;;;;21.77;17.60;;;8.60;10.00;;;;;;6410382;22;20403;-91
2021/03/01 16:20:18;;;;;;;21.00;18.17;;;8.40;54.50;;;;;;6409848;22;20552;-94
2021/03/01 16:25:35;;;;;;;21.43;17.20;;;8.30;99.50;;;;;;6410004;22;20409;-93
2021/03/01 16:28:07;;;;;;;23.37;17.53;;;8.10;99.90;;;;;;6409660;22;20414;-93
2021/03/01 16:30:35;;;;;;;28.03;20.90;;;8.10;99.90;;;;;;6409865;22;20395;-93
2021/03/01 16:33:07;;;;;;;24.17;19.67;;;8.00;99.90;;;;;;6410247;22;20730;-94
2021/03/01 16:35:36;;;;;;;21.10;17.40;;;7.80;99.90;;;;;;6410451;22;20858;-93
2021/03/01 16:38:08;;;;;;;27.63;24.63;;;7.70;99.90;;;;;;6411743;22;20421;-93
2021/03/01 16:40:38;;;;;;;38.90;31.53;;;7.50;99.90;;;;;;6410358;22;20422;-93
2021/03/01 16:43:14;;;;;;;26.57;20.53;;;7.50;1.00;;;;;;6410764;22;20422;-94
2021/03/01 16:45:54;;;;;;;23.13;19.17;;;7.40;1.00;;;;;;6410948;22;20417;-93
2021/03/01 16:48:32;;;;;;;20.00;16.53;;;7.30;1.00;;;;;;6409643;22;20383;-93
2021/03/01 16:51:04;;;;;;;21.13;16.90;;;7.30;1.00;;;;;;6409986;22;20423;-94
2021/03/01 16:53:41;;;;;;;21.87;16.53;;;7.20;1.00;;;;;;6411487;22;20418;-93
2021/03/01 16:56:10;;;;;;;21.27;16.13;;;7.10;81.10;;;;;;6412856;22;20421;-93
2021/03/01 16:58:37;;;;;;;22.13;18.57;;;7.00;99.90;;;;;;6410519;22;20471;-92
2021/03/01 17:01:05;;;;;;;17.97;15.47;;;6.90;99.90;;;;;;6411212;22;20401;-93
2021/03/01 17:03:33;;;;;;;18.70;14.87;;;6.90;99.90;;;;;;6407423;22;20425;-93
2021/03/01 17:06:05;;;;;;;21.60;17.17;;;6.80;99.90;;;;;;6407353;22;20421;-92
2021/03/01 17:08:38;;;;;;;21.10;17.13;;;6.80;1.00;;;;;;6407866;22;20474;-93
2021/03/01 17:11:11;;;;;;;21.40;16.70;;;6.80;99.90;;;;;;6408445;22;20886;-92
2021/03/01 17:13:42;;;;;;;25.93;16.37;;;6.70;99.90;;;;;;6409093;22;20422;-93
2021/03/01 17:16:10;;;;;;;19.70;17.30;;;6.70;33.60;;;;;;6407677;22;20425;-93
2021/03/01 17:18:40;;;;;;;18.40;16.07;;;6.60;99.90;;;;;;6407547;22;20425;-93
2021/03/01 17:21:15;;;;;;;25.00;18.03;;;6.60;1.00;;;;;;6408549;22;20915;-93
2021/03/01 17:23:50;;;;;;;20.60;17.30;;;6.50;59.20;;;;;;6407518;22;20421;-93
2021/03/01 17:26:21;;;;;;;19.77;15.23;;;6.50;99.90;;;;;;6408085;22;20396;-93
2021/03/01 17:28:52;;;;;;;18.77;15.90;;;6.40;99.90;;;;;;6407126;22;20575;-93
2021/03/01 17:31:19;;;;;;;19.70;16.03;;;6.30;1.00;;;;;;6408017;22;20472;-91
2021/03/01 17:33:53;;;;;;;17.00;15.07;;;6.20;1.00;;;;;;6408079;22;20873;-93
2021/03/01 17:36:22;;;;;;;18.00;14.90;;;6.20;1.00;;;;;;6408699;22;20405;-93
2021/03/01 17:38:53;;;;;;;17.43;15.30;;;6.20;2.10;;;;;;6407418;22;20411;-93
2021/03/01 17:41:28;;;;;;;17.63;15.07;;;6.10;14.30;;;;;;6409145;22;20416;-93
2021/03/01 17:44:07;;;;;;;20.40;16.50;;;6.10;48.40;;;;;;6407603;22;20420;-94
2021/03/01 17:49:34;;;;;;;20.23;15.57;;;6.00;99.90;;;;;;6408840;22;20469;-94
2021/03/01 17:55:15;;;;;;;22.00;16.70;;;5.90;99.90;;;;;;6409208;22;20850;-93
2021/03/01 17:58:01;;;;;;;19.47;16.57;;;5.90;99.90;;;;;;6405989;22;20849;-93
2021/03/01 18:12:09;;;;;;;21.20;18.10;;;5.70;99.90;;;;;;6407840;22;20503;-94
2021/03/01 18:17:24;;;;;;;19.10;16.97;;;5.60;99.90;;;;;;6405442;22;20403;-94
2021/03/01 18:19:58;;;;;;;23.33;17.47;;;5.60;99.90;;;;;;6408971;22;20418;-94
2021/03/01 18:22:32;;;;;;;20.37;17.10;;;5.60;99.90;;;;;;6407696;22;20401;-94
2021/03/01 18:31:02;;;;;;;21.37;17.87;;;5.50;99.90;;;;;;6408092;22;20417;-94
2021/03/01 18:39:32;;;;;;;21.20;16.87;;;5.40;99.90;;;;;;6411217;22;20778;-92
2021/03/01 18:48:42;;;;;;;18.37;14.93;;;5.40;99.90;;;;;;6413836;22;20398;-93
2021/03/01 19:02:07;;;;;;;22.63;16.70;;;5.10;99.90;;;;;;6423315;22;20436;-93
2021/03/01 19:04:46;;;;;;;22.73;17.57;;;5.10;99.90;;;;;;6442815;22;20664;-93
2021/03/01 19:07:14;;;;;;;22.17;18.33;;;5.00;99.90;;;;;;6441396;22;20398;-93
2021/03/01 19:09:42;;;;;;;24.57;19.27;;;5.00;99.90;;;;;;6440187;22;20449;-92
2021/03/01 19:12:10;;;;;;;18.33;16.27;;;5.00;99.90;;;;;;6413108;22;20455;-93
2021/03/01 19:14:37;;;;;;;20.50;17.10;;;4.90;99.90;;;;;;6442055;22;20494;-93
2021/03/01 19:17:05;;;;;;;18.60;15.67;;;4.90;99.90;;;;;;6442056;22;20448;-93
2021/03/01 19:19:33;;;;;;;20.90;16.17;;;4.90;99.90;;;;;;6441542;22;20399;-93
2021/03/01 19:24:56;;;;;;;21.27;16.00;;;4.80;99.90;;;;;;6443910;22;20776;-93
2021/03/01 19:27:28;;;;;;;20.40;16.93;;;4.80;99.90;;;;;;6446993;22;20420;-93
2021/03/01 19:30:03;;;;;;;21.77;17.23;;;4.70;99.90;;;;;;6418380;22;20912;-93
2021/03/01 19:32:33;;;;;;;23.50;17.07;;;4.70;99.90;;;;;;6448206;22;20464;-93
2021/03/01 19:35:03;;;;;;;20.53;17.43;;;4.70;99.90;;;;;;6421301;22;20412;-93
2021/03/01 19:37:36;;;;;;;22.07;16.43;;;4.60;99.90;;;;;;6448904;22;20379;-93
2021/03/01 19:40:12;;;;;;;22.70;17.67;;;4.60;99.90;;;;;;6447629;22;20376;-93
2021/03/01 19:42:42;;;;;;;29.97;23.43;;;4.50;99.90;;;;;;6448393;22;20391;-93
2021/03/01 19:47:59;;;;;;;62.03;46.23;;;4.40;99.90;;;;;;6445522;22;20408;-93
2021/03/01 19:50:27;;;;;;;61.03;41.80;;;4.30;99.90;;;;;;6445550;22;20421;-93
2021/03/01 19:52:57;;;;;;;44.57;30.70;;;4.30;99.90;;;;;;6447821;22;20436;-93
2021/03/01 19:55:27;;;;;;;45.33;29.13;;;4.30;99.90;;;;;;6446744;22;20424;-93
2021/03/01 20:08:20;;;;;;;22.50;19.27;;;4.20;99.90;;;;;;6395443;22;20437;-91
2021/03/01 20:10:52;;;;;;;22.80;18.37;;;4.20;99.90;;;;;;6287316;22;20420;-90
2021/03/01 20:13:20;;;;;;;33.97;24.70;;;4.20;99.90;;;;;;6413033;22;20850;-91
2021/03/01 20:30:27;;;;;;;31.70;22.23;;;4.00;99.90;;;;;;6395389;22;20479;-93
2021/03/01 21:18:48;;;;;;;24.90;16.90;;;3.00;99.90;;;;;;6424497;22;20484;-91
2021/03/01 21:28:29;;;;;;;24.73;18.83;;;3.10;99.90;;;;;;6370097;22;20186;-92
2021/03/01 21:31:24;;;;;;;22.53;17.57;;;3.10;99.90;;;;;;6413706;22;20906;-91
2021/03/01 21:34:27;;;;;;;21.40;17.57;;;3.10;99.90;;;;;;6404055;22;20388;-93
2021/03/01 21:37:01;;;;;;;21.80;17.00;;;3.00;99.90;;;;;;6403508;22;20551;-90
2021/03/01 21:39:32;;;;;;;21.83;17.43;;;3.10;99.90;;;;;;6404726;22;20417;-90
2021/03/01 21:42:05;;;;;;;27.97;16.40;;;3.10;99.90;;;;;;6403802;22;20417;-90
2021/03/01 21:44:37;;;;;;;22.93;18.10;;;3.10;99.90;;;;;;6403554;22;20409;-90
2021/03/01 21:47:46;;;;;;;25.40;18.93;;;2.90;99.90;;;;;;6405136;22;20417;-92
2021/03/01 22:21:47;;;;;;;22.80;17.30;;;2.40;99.90;;;;;;6404688;22;20426;-91
2021/03/01 22:24:42;;;;;;;;;;;;;;;;;;;;;
2021/03/01 23:03:08;;;;;;;25.63;17.03;;;2.00;99.90;;;;;;6407729;22;20542;-93
2021/03/01 23:10:00;;;;;;;26.53;16.30;;;1.90;99.90;;;;;;6235470;22;20411;-93
2021/03/01 23:15:09;;;;;;;19.83;15.33;;;1.90;99.90;;;;;;6408282;22;20437;-93
2021/03/01 23:18:25;;;;;;;20.33;16.80;;;1.90;99.90;;;;;;6408926;22;20424;-92
2021/03/01 23:20:54;;;;;;;16.23;14.07;;;1.80;99.90;;;;;;6413123;22;20432;-93
2021/03/01 23:56:53;;;;;;;30.53;21.70;;;1.30;99.90;;;;;;6410754;22;20530;-93
2021/03/01 23:59:21;;;;;;;25.83;18.27;;;1.20;99.90;;;;;;6410917;22;20377;-91
